Time;durP1;ratioP1;P1;durP2;ratioP2;P2;SDS_P1;SDS_P2;PMS_P1;PMS_P2;Temp;Humidity;BMP_temperature;BMP_pressure;BME280_temperature;BME280_humidity;BME280_pressure;Samples;Min_cycle;Max_cycle;Signal;HPM_P1;HPM_P2
2022/05/26 00:00:33;;;;;;;;;;;;;;;8.52;62.47;99231.84;5001628;28;19980;-72
2022/05/26 00:02:59;;;;;;;;;;;;;;;8.51;62.33;99230.22;5004272;28;19931;-72
2022/05/26 00:05:25;;;;;;;;;;;;;;;8.50;62.20;99232.09;5004832;28;19931;-71
2022/05/26 00:07:52;;;;;;;;;;;;;;;8.50;62.31;99234.81;5022815;28;19933;-71
2022/05/26 00:10:18;;;;;;;;;;;;;;;8.49;61.94;99237.81;5003572;28;20438;-72
2022/05/26 00:12:44;;;;;;;;;;;;;;;8.45;62.48;99234.03;5017853;28;19926;-71
2022/05/26 00:15:10;;;;;;;;;;;;;;;8.43;62.40;99230.72;5005763;28;20285;-72
2022/05/26 00:17:36;;;;;;;;;;;;;;;8.42;62.51;99223.66;5019828;28;20488;-72
2022/05/26 00:20:04;;;;;;;;;;;;;;;8.41;62.56;99222.84;5004553;28;20023;-72
2022/05/26 00:22:29;;;;;;;;;;;;;;;8.43;62.51;99223.38;5004833;28;20037;-71
2022/05/26 00:24:57;;;;;;;;;;;;;;;8.40;62.77;99223.09;5002048;28;20399;-71
2022/05/26 00:27:22;;;;;;;;;;;;;;;8.36;62.42;99214.69;5002905;28;19937;-71
2022/05/26 00:29:48;;;;;;;;;;;;;;;8.32;62.69;99219.84;5005121;28;20333;-77
2022/05/26 00:32:14;;;;;;;;;;;;;;;8.21;62.25;99207.31;5004482;28;20296;-77
2022/05/26 00:34:39;;;;;;;;;;;;;;;8.23;62.91;99210.59;5003101;28;19925;-77
2022/05/26 00:37:05;;;;;;;;;;;;;;;8.16;62.82;99207.34;5004653;28;19925;-77
2022/05/26 00:39:31;;;;;;;;;;;;;;;8.06;63.18;99198.06;5004868;28;19980;-78
2022/05/26 00:42:01;;;;;;;;;;;;;;;7.98;63.32;99205.97;5006447;28;20408;-77
2022/05/26 00:44:27;;;;;;;;;;;;;;;7.90;63.62;99205.44;5018868;28;19980;-78
2022/05/26 00:46:55;;;;;;;;;;;;;;;7.88;63.60;99195.91;4999685;28;20415;-77
2022/05/26 00:49:24;;;;;;;;;;;;;;;7.88;63.33;99199.47;5004480;28;19932;-77
2022/05/26 00:51:50;;;;;;;;;;;;;;;7.90;62.88;99196.44;5004615;28;20396;-77
2022/05/26 00:54:19;;;;;;;;;;;;;;;7.87;62.91;99191.56;5007135;28;20292;-78
2022/05/26 00:56:49;;;;;;;;;;;;;;;7.85;62.97;99188.28;5007125;28;19955;-77
2022/05/26 00:59:27;;;;;;;;;;;;;;;7.80;63.62;99183.66;5006556;28;20020;-77
2022/05/26 01:01:55;;;;;;;;;;;;;;;7.76;63.78;99186.09;5003651;28;20456;-78
2022/05/26 01:04:22;;;;;;;;;;;;;;;7.80;63.29;99187.19;5004003;28;19957;-78
2022/05/26 01:06:53;;;;;;;;;;;;;;;7.82;63.41;99184.19;5003550;28;19932;-77
2022/05/26 01:09:20;;;;;;;;;;;;;;;7.78;64.09;99188.56;5005665;28;19980;-77
2022/05/26 01:11:46;;;;;;;;;;;;;;;7.77;64.37;99171.41;5007986;28;19926;-76
2022/05/26 01:14:13;;;;;;;;;;;;;;;7.77;64.51;99178.75;5004033;28;20020;-78
2022/05/26 01:16:44;;;;;;;;;;;;;;;7.77;64.41;99176.84;5005923;28;19933;-77
2022/05/26 01:19:25;;;;;;;;;;;;;;;7.83;64.22;99169.50;5004921;28;19969;-77
2022/05/26 01:21:55;;;;;;;;;;;;;;;7.90;63.89;99172.78;5021571;28;19980;-77
2022/05/26 01:24:30;;;;;;;;;;;;;;;7.93;63.72;99172.22;5004854;28;19925;-77
2022/05/26 01:27:22;;;;;;;;;;;;;;;7.98;63.64;99173.31;5005748;28;19925;-77
2022/05/26 01:30:07;;;;;;;;;;;;;;;8.03;63.87;99171.41;5006029;28;19925;-77
2022/05/26 01:32:40;;;;;;;;;;;;;;;8.09;63.84;99161.31;5004904;28;19932;-77
2022/05/26 01:35:11;;;;;;;;;;;;;;;8.15;63.92;99162.94;5007594;28;19925;-77
2022/05/26 01:37:41;;;;;;;;;;;;;;;8.23;62.55;99150.69;5008526;28;19926;-77
2022/05/26 01:40:10;;;;;;;;;;;;;;;8.30;62.43;99150.41;5009320;28;19948;-78
2022/05/26 01:42:45;;;;;;;;;;;;;;;8.32;62.15;99143.59;5009748;28;20028;-77
2022/05/26 01:45:15;;;;;;;;;;;;;;;8.37;62.19;99148.22;5007772;28;19933;-77
2022/05/26 01:47:46;;;;;;;;;;;;;;;8.42;62.13;99144.63;5008360;28;20389;-77
2022/05/26 01:50:17;;;;;;;;;;;;;;;8.40;62.16;99149.56;5028455;28;19926;-79
2022/05/26 01:52:46;;;;;;;;;;;;;;;8.32;62.31;99138.16;5011875;28;19933;-78
2022/05/26 01:55:13;;;;;;;;;;;;;;;8.40;62.32;99149.56;5013006;28;19926;-78
2022/05/26 01:57:44;;;;;;;;;;;;;;;8.40;61.88;99147.66;5008233;28;19947;-77
2022/05/26 02:00:12;;;;;;;;;;;;;;;8.39;62.16;99151.47;5006063;28;19925;-77
2022/05/26 02:02:40;;;;;;;;;;;;;;;8.33;62.22;99142.50;5007346;28;20302;-77
2022/05/26 02:05:10;;;;;;;;;;;;;;;8.30;62.32;99148.50;5027042;28;19983;-71
2022/05/26 02:07:38;;;;;;;;;;;;;;;8.26;61.97;99147.41;5006585;28;20448;-71
2022/05/26 02:10:06;;;;;;;;;;;;;;;8.22;61.96;99146.31;5006434;28;19929;-71
2022/05/26 02:12:35;;;;;;;;;;;;;;;8.20;62.27;99152.06;5005065;28;19983;-71
2022/05/26 02:15:04;;;;;;;;;;;;;;;8.23;61.79;99147.94;5020816;28;20028;-71
2022/05/26 02:17:31;;;;;;;;;;;;;;;8.28;62.17;99152.59;5006366;28;20016;-72
2022/05/26 02:20:00;;;;;;;;;;;;;;;8.30;62.07;99151.22;5006170;28;20024;-76
2022/05/26 02:22:30;;;;;;;;;;;;;;;8.33;62.06;99147.94;5005331;28;19925;-78
2022/05/26 02:24:58;;;;;;;;;;;;;;;8.32;62.46;99143.59;5022088;28;19953;-77
2022/05/26 02:27:26;;;;;;;;;;;;;;;8.33;62.86;99144.38;5007236;28;19925;-77
2022/05/26 02:29:52;;;;;;;;;;;;;;;8.32;63.49;99142.75;5006518;28;19925;-77
2022/05/26 02:32:20;;;;;;;;;;;;;;;8.28;63.64;99142.50;5006095;28;19968;-77
2022/05/26 02:34:47;;;;;;;;;;;;;;;8.24;63.99;99135.97;5005905;28;19929;-77
2022/05/26 02:37:13;;;;;;;;;;;;;;;8.25;63.56;99132.16;5005318;28;19948;-77
2022/05/26 02:39:41;;;;;;;;;;;;;;;8.28;64.08;99134.34;5007279;28;19947;-77
2022/05/26 02:42:07;;;;;;;;;;;;;;;8.37;63.50;99132.66;5006898;28;20140;-78
2022/05/26 02:44:33;;;;;;;;;;;;;;;8.44;63.10;99134.31;5005506;28;19929;-77
2022/05/26 02:47:09;;;;;;;;;;;;;;;8.54;62.80;99131.56;5004728;28;19971;-77
2022/05/26 02:49:45;;;;;;;;;;;;;;;8.71;62.05;99138.59;5004667;28;19965;-77
2022/05/26 02:52:17;;;;;;;;;;;;;;;8.85;61.74;99136.91;5005545;28;20392;-77
2022/05/26 02:54:49;;;;;;;;;;;;;;;8.93;61.56;99130.88;5006480;28;20375;-77
2022/05/26 02:57:17;;;;;;;;;;;;;;;9.04;61.47;99128.06;5007260;28;20056;-77
2022/05/26 02:59:49;;;;;;;;;;;;;;;9.17;60.85;99122.00;5021350;28;20024;-77
2022/05/26 03:02:19;;;;;;;;;;;;;;;9.30;60.55;99125.22;5007528;28;19926;-78
2022/05/26 03:04:46;;;;;;;;;;;;;;;9.34;60.24;99124.38;5019193;28;19929;-78
2022/05/26 03:07:15;;;;;;;;;;;;;;;9.39;60.08;99117.22;5004967;28;19932;-78
2022/05/26 03:09:41;;;;;;;;;;;;;;;9.42;59.86;99111.19;5007031;28;19929;-72
2022/05/26 03:12:19;;;;;;;;;;;;;;;9.46;59.79;99117.75;5007352;28;19996;-72
2022/05/26 03:14:45;;;;;;;;;;;;;;;9.53;59.72;99107.31;5005938;28;20035;-72
2022/05/26 03:17:10;;;;;;;;;;;;;;;9.57;59.39;99105.63;5020904;28;20028;-73
2022/05/26 03:19:36;;;;;;;;;;;;;;;9.59;59.41;99097.97;5005083;28;21155;-72
2022/05/26 03:22:02;;;;;;;;;;;;;;;9.60;59.12;99096.06;5003086;28;20459;-71
2022/05/26 03:24:28;;;;;;;;;;;;;;;9.62;59.44;99100.16;5006935;28;19926;-71
2022/05/26 03:26:53;;;;;;;;;;;;;;;9.63;59.09;99095.50;5002504;28;19931;-72
2022/05/26 03:29:21;;;;;;;;;;;;;;;9.64;58.99;99097.13;5000280;28;19925;-72
2022/05/26 03:31:47;;;;;;;;;;;;;;;9.67;58.09;99096.53;5003939;28;19929;-72
2022/05/26 03:42:26;;;;;;;;;;;;;;;9.93;57.88;99088.13;5002828;28;20444;-73
2022/05/26 03:44:53;;;;;;;;;;;;;;;9.96;57.65;99086.75;5005492;28;20083;-72
2022/05/26 03:47:19;;;;;;;;;;;;;;;9.95;57.29;99085.91;5001305;28;19979;-72
2022/05/26 03:49:44;;;;;;;;;;;;;;;10.00;56.94;99076.88;5002258;28;19961;-72
2022/05/26 03:52:10;;;;;;;;;;;;;;;10.08;56.59;99070.78;5003863;28;19925;-73
2022/05/26 03:54:36;;;;;;;;;;;;;;;10.13;56.80;99070.72;5005211;28;19932;-72
2022/05/26 03:57:03;;;;;;;;;;;;;;;10.19;56.53;99069.56;5006408;28;20118;-72
2022/05/26 03:59:29;;;;;;;;;;;;;;;10.26;56.52;99066.47;5005036;28;19925;-72
2022/05/26 04:01:56;;;;;;;;;;;;;;;10.33;55.90;99064.22;5004415;28;19926;-72
2022/05/26 04:04:22;;;;;;;;;;;;;;;10.42;55.65;99061.69;5002241;28;20036;-72
2022/05/26 04:06:48;;;;;;;;;;;;;;;10.53;55.39;99064.28;5003625;28;20019;-72
2022/05/26 04:09:14;;;;;;;;;;;;;;;10.66;55.19;99057.31;5002813;28;19979;-71
2022/05/26 04:11:40;;;;;;;;;;;;;;;10.72;54.98;99050.66;5004927;28;19929;-71
2022/05/26 04:14:06;;;;;;;;;;;;;;;10.73;55.02;99050.38;5003587;28;20392;-72
2022/05/26 04:16:32;;;;;;;;;;;;;;;10.71;54.87;99046.28;4999998;28;19925;-73
2022/05/26 04:18:59;;;;;;;;;;;;;;;10.64;55.21;99043.91;5002218;28;20308;-72
2022/05/26 04:21:24;;;;;;;;;;;;;;;10.56;55.40;99056.31;4999231;28;19983;-72
2022/05/26 04:23:50;;;;;;;;;;;;;;;10.49;55.16;99056.66;4987184;28;19961;-72
2022/05/26 04:26:16;;;;;;;;;;;;;;;10.40;55.60;99038.44;4986038;28;20313;-72
2022/05/26 04:28:42;;;;;;;;;;;;;;;10.27;55.75;99035.31;5005959;28;20452;-72
2022/05/26 04:31:08;;;;;;;;;;;;;;;10.18;56.07;99037.09;5006202;28;20401;-72
2022/05/26 04:33:34;;;;;;;;;;;;;;;10.08;56.11;99032.56;5008124;28;19961;-72
2022/05/26 04:36:04;;;;;;;;;;;;;;;10.02;56.65;99029.06;5005656;28;20416;-72
2022/05/26 04:38:31;;;;;;;;;;;;;;;10.02;56.48;99028.22;5026722;28;19948;-78
2022/05/26 04:40:57;;;;;;;;;;;;;;;10.06;56.39;99029.28;5002215;28;20200;-78
2022/05/26 04:43:23;;;;;;;;;;;;;;;10.14;56.47;99023.19;4999048;28;19929;-77
2022/05/26 04:45:50;;;;;;;;;;;;;;;10.23;56.67;99015.16;5019419;28;19925;-77
2022/05/26 04:48:17;;;;;;;;;;;;;;;10.32;56.22;99026.25;5003426;28;20479;-77
2022/05/26 04:50:43;;;;;;;;;;;;;;;10.39;56.12;99013.06;5003106;28;19929;-78
2022/05/26 04:53:10;;;;;;;;;;;;;;;10.37;56.06;99017.97;5003784;28;20040;-78
2022/05/26 04:55:36;;;;;;;;;;;;;;;10.33;56.16;99020.50;5003936;28;20415;-78
2022/05/26 04:58:02;;;;;;;;;;;;;;;10.40;56.39;99011.94;5002908;28;19926;-77
2022/05/26 05:00:28;;;;;;;;;;;;;;;10.46;56.24;99012.75;5004552;28;19925;-77
2022/05/26 05:02:53;;;;;;;;;;;;;;;10.60;56.27;99008.16;4990111;28;19971;-76
2022/05/26 05:05:19;;;;;;;;;;;;;;;10.75;55.70;99015.34;4997819;28;20316;-72
2022/05/26 05:07:45;;;;;;;;;;;;;;;10.89;55.29;99007.19;4999632;28;20465;-72
2022/05/26 05:10:12;;;;;;;;;;;;;;;10.97;54.76;99011.19;5001298;28;19975;-77
2022/05/26 05:12:40;;;;;;;;;;;;;;;11.00;54.15;99004.31;5002268;28;20419;-77
2022/05/26 05:15:08;;;;;;;;;;;;;;;11.01;53.96;99004.03;5002907;28;19925;-77
2022/05/26 05:17:34;;;;;;;;;;;;;;;11.00;54.29;99007.06;5007526;28;19925;-77
2022/05/26 05:20:00;;;;;;;;;;;;;;;11.03;54.70;99014.66;5005163;28;19925;-77
2022/05/26 05:22:27;;;;;;;;;;;;;;;11.10;54.48;99009.63;5006046;28;19946;-71
2022/05/26 05:24:55;;;;;;;;;;;;;;;11.17;54.23;99012.78;5009024;28;19952;-71
2022/05/26 05:27:24;;;;;;;;;;;;;;;11.29;53.82;99008.78;5007953;28;19960;-71
2022/05/26 05:29:52;;;;;;;;;;;;;;;11.39;53.92;99005.88;5007821;28;19926;-71
2022/05/26 05:32:20;;;;;;;;;;;;;;;11.47;53.95;99007.94;5008027;28;19978;-71
2022/05/26 05:34:48;;;;;;;;;;;;;;;11.49;53.51;99013.91;5007931;28;20441;-76
2022/05/26 05:37:14;;;;;;;;;;;;;;;11.56;53.07;99010.00;4989096;28;19926;-76
2022/05/26 05:39:40;;;;;;;;;;;;;;;11.61;53.36;99007.94;5027721;28;20410;-77
2022/05/26 05:42:06;;;;;;;;;;;;;;;11.69;53.10;99008.38;5010874;28;19932;-77
2022/05/26 05:44:34;;;;;;;;;;;;;;;11.75;52.98;99012.66;5011043;28;19972;-76
2022/05/26 05:47:01;;;;;;;;;;;;;;;11.81;52.68;99002.41;5007703;28;20024;-76
2022/05/26 05:49:28;;;;;;;;;;;;;;;11.87;52.56;98998.47;5006375;28;19925;-76
2022/05/26 05:51:54;;;;;;;;;;;;;;;11.86;51.93;98992.19;5008212;28;20036;-76
2022/05/26 05:54:21;;;;;;;;;;;;;;;11.83;51.44;98990.06;5010954;28;19929;-76
2022/05/26 05:56:47;;;;;;;;;;;;;;;11.84;51.17;98988.09;5012612;28;20031;-76
2022/05/26 05:59:13;;;;;;;;;;;;;;;11.91;51.39;98981.13;5007673;28;20032;-76
2022/05/26 06:01:40;;;;;;;;;;;;;;;12.01;51.51;98982.03;5004694;28;19932;-76
2022/05/26 06:04:07;;;;;;;;;;;;;;;12.08;51.54;98976.19;5009121;28;20001;-76
2022/05/26 06:06:36;;;;;;;;;;;;;;;12.10;51.21;98984.91;5021702;28;19925;-76
2022/05/26 06:09:02;;;;;;;;;;;;;;;12.08;51.05;98982.47;4998638;28;19960;-76
2022/05/26 06:11:28;;;;;;;;;;;;;;;12.13;51.33;98987.84;5006781;28;20816;-76
2022/05/26 06:13:54;;;;;;;;;;;;;;;12.23;51.25;98986.84;5009267;28;19932;-76
2022/05/26 06:16:20;;;;;;;;;;;;;;;12.46;50.71;98984.16;5010302;28;19971;-76
2022/05/26 06:18:49;;;;;;;;;;;;;;;12.69;50.00;98984.22;5005578;28;19933;-77
2022/05/26 06:21:15;;;;;;;;;;;;;;;12.87;50.02;98985.16;5000079;28;19929;-77
2022/05/26 06:23:41;;;;;;;;;;;;;;;13.02;49.46;98986.75;4999986;28;20023;-76
2022/05/26 06:26:07;;;;;;;;;;;;;;;13.18;49.22;98976.19;5009939;28;20016;-76
2022/05/26 06:31:20;;;;;;;;;;;;;;;13.50;48.70;98968.03;5008018;28;19948;-77
2022/05/26 06:37:31;;;;;;;;;;;;;;;13.97;47.08;98962.09;5009142;28;20305;-71
2022/05/26 06:39:26;;;;;;;;;;;;;;;14.18;46.63;98962.31;5002124;28;19964;-71
2022/05/26 06:42:07;;;;;;;;;;;;;;;14.22;46.48;98960.56;5006827;28;19955;-77
2022/05/26 06:44:34;;;;;;;;;;;;;;;14.33;46.25;98952.84;5006544;28;20396;-77
2022/05/26 06:47:00;;;;;;;;;;;;;;;14.47;45.85;98955.44;5000086;28;21848;-77
2022/05/26 06:49:28;;;;;;;;;;;;;;;14.58;45.80;98944.91;4996630;28;19936;-71
2022/05/26 06:51:53;;;;;;;;;;;;;;;14.79;45.47;98949.81;5002797;28;19936;-72
2022/05/26 06:54:19;;;;;;;;;;;;;;;15.02;45.04;98956.75;5006142;28;19925;-71
2022/05/26 06:56:45;;;;;;;;;;;;;;;15.22;44.42;98951.75;5005789;28;19925;-71
2022/05/26 06:59:11;;;;;;;;;;;;;;;15.42;44.20;98952.19;5006486;28;20527;-72
2022/05/26 07:01:36;;;;;;;;;;;;;;;15.54;42.77;98937.72;5019712;28;19925;-71
2022/05/26 07:04:02;;;;;;;;;;;;;;;15.54;43.32;98940.47;5003115;28;19981;-72
2022/05/26 07:06:30;;;;;;;;;;;;;;;15.74;42.74;98933.44;5002454;28;19934;-72
2022/05/26 07:08:56;;;;;;;;;;;;;;;15.94;42.84;98926.41;5019745;28;19925;-72
2022/05/26 07:11:22;;;;;;;;;;;;;;;15.99;41.91;98922.63;5006329;28;19925;-72
2022/05/26 07:13:48;;;;;;;;;;;;;;;16.10;42.15;98923.06;5003721;28;20440;-72
2022/05/26 07:16:13;;;;;;;;;;;;;;;16.30;41.84;98926.97;5021151;28;20120;-72
2022/05/26 07:18:40;;;;;;;;;;;;;;;16.35;41.54;98921.28;5001927;28;20859;-71
2022/05/26 07:21:07;;;;;;;;;;;;;;;16.23;41.98;98916.47;5017797;28;20436;-72
2022/05/26 07:23:34;;;;;;;;;;;;;;;16.15;41.77;98907.13;5003650;28;19925;-71
2022/05/26 07:26:03;;;;;;;;;;;;;;;16.19;41.49;98914.75;4986677;28;19933;-72
2022/05/26 07:28:29;;;;;;;;;;;;;;;16.18;41.56;98913.13;5005070;28;20359;-71
2022/05/26 07:30:55;;;;;;;;;;;;;;;16.24;40.97;98912.59;4985886;28;19936;-72
2022/05/26 07:33:20;;;;;;;;;;;;;;;16.51;40.63;98910.44;5005780;28;19929;-72
2022/05/26 07:35:46;;;;;;;;;;;;;;;16.77;40.08;98909.44;5021261;28;20670;-71
2022/05/26 07:41:16;;;;;;;;;;;;;;;17.28;39.21;98905.72;5005083;28;20027;-71
2022/05/26 07:43:43;;;;;;;;;;;;;;;17.57;38.70;98898.41;5005486;28;20308;-71
2022/05/26 07:46:10;;;;;;;;;;;;;;;17.70;38.24;98894.50;5003684;28;19933;-72
2022/05/26 07:48:36;;;;;;;;;;;;;;;17.78;36.69;98890.00;5019655;28;20019;-72
2022/05/26 07:51:03;;;;;;;;;;;;;;;17.78;36.65;98883.66;5001652;28;20234;-78
2022/05/26 07:53:29;;;;;;;;;;;;;;;18.14;35.34;98884.84;5018867;28;19925;-77
2022/05/26 07:55:55;;;;;;;;;;;;;;;18.18;35.06;98882.16;5006761;28;20377;-78
2022/05/26 07:58:23;;;;;;;;;;;;;;;18.33;35.40;98883.41;5005325;28;20394;-77
2022/05/26 08:00:49;;;;;;;;;;;;;;;18.44;34.81;98870.72;5004348;28;19925;-78
2022/05/26 08:03:15;;;;;;;;;;;;;;;18.64;34.49;98870.88;5004029;28;19929;-77
2022/05/26 08:05:41;;;;;;;;;;;;;;;19.40;32.91;98861.81;5005157;28;19933;-78
2022/05/26 08:08:07;;;;;;;;;;;;;;;19.78;32.46;98865.94;5005177;28;19960;-78
2022/05/26 08:10:33;;;;;;;;;;;;;;;20.37;31.99;98859.72;5005472;28;20157;-77
2022/05/26 08:12:58;;;;;;;;;;;;;;;20.47;31.74;98859.16;4672413;28;10000098;-78
2022/05/26 08:15:26;;;;;;;;;;;;;;;20.67;31.47;98850.81;5000359;28;19932;-78
2022/05/26 08:17:51;;;;;;;;;;;;;;;20.63;31.13;98852.72;5011190;28;19937;-72
2022/05/26 08:20:17;;;;;;;;;;;;;;;20.76;31.12;98850.59;4301304;28;9999793;-70
2022/05/26 08:22:43;;;;;;;;;;;;;;;20.94;30.88;98843.41;5009957;28;20018;-71
2022/05/26 08:25:10;;;;;;;;;;;;;;;20.87;30.66;98843.31;4996469;28;20471;-71
2022/05/26 08:27:37;;;;;;;;;;;;;;;20.31;31.32;98842.56;4998006;28;20024;-70
2022/05/26 08:30:04;;;;;;;;;;;;;;;19.89;32.10;98835.66;4998846;28;20063;-71
2022/05/26 08:32:32;;;;;;;;;;;;;;;20.11;31.64;98836.16;4998357;28;19940;-77
2022/05/26 08:34:59;;;;;;;;;;;;;;;20.81;30.02;98831.69;4998962;28;20015;-71
2022/05/26 08:37:25;;;;;;;;;;;;;;;21.24;29.83;98830.88;5000087;28;19925;-72
2022/05/26 08:39:50;;;;;;;;;;;;;;;21.81;28.38;98825.44;5001128;28;19926;-71
2022/05/26 08:42:18;;;;;;;;;;;;;;;22.15;28.17;98821.91;5001123;28;20414;-77
2022/05/26 08:44:43;;;;;;;;;;;;;;;22.66;27.18;98809.44;5019752;28;20076;-71
2022/05/26 08:47:10;;;;;;;;;;;;;;;22.64;25.38;98830.53;5011896;28;20021;-71
2022/05/26 08:49:39;;;;;;;;;;;;;;;21.98;26.25;98816.91;5025781;28;19948;-71
2022/05/26 08:52:12;;;;;;;;;;;;;;;22.57;25.45;98824.84;5013222;28;19969;-71
2022/05/26 08:54:39;;;;;;;;;;;;;;;22.82;24.41;98819.56;5010176;28;20406;-72
2022/05/26 08:57:08;;;;;;;;;;;;;;;22.64;24.69;98819.38;5009599;28;20024;-72
2022/05/26 08:59:36;;;;;;;;;;;;;;;22.81;24.97;98823.53;5009890;28;19930;-72
2022/05/26 09:02:03;;;;;;;;;;;;;;;22.83;24.75;98812.81;5025697;28;19929;-72
2022/05/26 09:04:29;;;;;;;;;;;;;;;23.29;24.41;98814.47;5012800;28;19979;-72
2022/05/26 09:15:15;;;;;;;;;;;;;;;24.52;22.71;98802.47;5009148;28;19933;-78
2022/05/26 09:17:41;;;;;;;;;;;;;;;24.36;22.80;98792.44;5008713;28;19929;-78
2022/05/26 09:20:25;;;;;;;;;;;;;;;24.55;22.95;98793.28;5011319;28;20021;-78
2022/05/26 09:22:52;;;;;;;;;;;;;;;25.40;22.31;98790.22;5012595;28;20073;-72
2022/05/26 09:25:30;;;;;;;;;;;;;;;26.29;21.10;98787.69;5009123;28;19925;-72
2022/05/26 09:27:57;;;;;;;;;;;;;;;26.28;20.98;98789.69;5003248;28;20013;-71
2022/05/26 09:30:24;;;;;;;;;;;;;;;26.27;20.79;98779.69;5007092;28;20019;-78
2022/05/26 09:32:51;;;;;;;;;;;;;;;26.05;21.34;98778.94;5008706;28;19925;-76
2022/05/26 09:35:23;;;;;;;;;;;;;;;26.45;21.04;98771.19;5009994;28;19929;-77
2022/05/26 09:37:50;;;;;;;;;;;;;;;27.11;20.38;98770.81;5023505;28;19931;-72
2022/05/26 09:40:19;;;;;;;;;;;;;;;27.63;19.92;98774.78;5026983;28;20031;-77
2022/05/26 09:42:45;;;;;;;;;;;;;;;27.72;19.64;98769.50;5009620;28;20427;-77
2022/05/26 09:45:14;;;;;;;;;;;;;;;28.17;19.15;98772.22;5013374;28;20020;-78
2022/05/26 09:47:48;;;;;;;;;;;;;;;28.42;18.62;98764.69;5025018;28;20040;-77
2022/05/26 09:50:16;;;;;;;;;;;;;;;28.20;18.85;98764.97;5010854;28;19930;-78
2022/05/26 09:52:44;;;;;;;;;;;;;;;27.68;19.19;98755.47;5009456;28;20431;-71
2022/05/26 09:55:14;;;;;;;;;;;;;;;27.11;19.87;98749.19;5011602;28;19968;-72
2022/05/26 09:57:42;;;;;;;;;;;;;;;26.95;20.29;98746.09;5002610;28;19929;-71
2022/05/26 10:00:14;;;;;;;;;;;;;;;26.99;20.38;98744.84;5006113;28;19931;-71
2022/05/26 10:02:40;;;;;;;;;;;;;;;26.93;20.17;98748.50;5002243;28;19925;-71
2022/05/26 10:05:09;;;;;;;;;;;;;;;27.09;20.25;98736.78;4986726;28;19996;-71
2022/05/26 10:07:42;;;;;;;;;;;;;;;27.55;20.10;98732.75;5003574;28;19930;-72
2022/05/26 10:10:12;;;;;;;;;;;;;;;28.60;19.04;98725.09;5005475;28;19925;-72
2022/05/26 10:12:47;;;;;;;;;;;;;;;28.47;18.88;98736.09;5006306;28;19926;-72
2022/05/26 10:15:21;;;;;;;;;;;;;;;27.78;19.08;98733.34;4986716;28;19929;-72
2022/05/26 10:18:00;;;;;;;;;;;;;;;27.83;19.21;98728.06;4986114;28;20028;-72
2022/05/26 10:20:33;;;;;;;;;;;;;;;28.56;18.50;98718.69;4972173;28;19926;-77
2022/05/26 10:23:10;;;;;;;;;;;;;;;29.75;17.66;98709.53;5001031;28;20435;-78
2022/05/26 10:25:43;;;;;;;;;;;;;;;30.38;16.22;98714.25;5003550;28;19925;-77
2022/05/26 10:28:25;;;;;;;;;;;;;;;29.32;17.17;98705.44;4988088;28;20029;-78
2022/05/26 10:30:57;;;;;;;;;;;;;;;28.46;18.04;98697.97;4979083;28;19926;-78
2022/05/26 10:33:37;;;;;;;;;;;;;;;27.69;18.91;98698.13;4985863;28;19925;-78
2022/05/26 10:36:09;;;;;;;;;;;;;;;27.32;19.61;98703.31;4989423;28;20008;-78
2022/05/26 10:38:45;;;;;;;;;;;;;;;26.35;20.26;98695.63;4987267;28;19972;-78
2022/05/26 10:41:16;;;;;;;;;;;;;;;25.46;20.93;98694.31;5002223;28;19925;-77
2022/05/26 10:43:46;;;;;;;;;;;;;;;24.52;21.60;98691.50;4986893;28;19925;-78
2022/05/26 10:46:14;;;;;;;;;;;;;;;24.80;21.67;98689.97;4988972;28;19937;-78
2022/05/26 10:48:42;;;;;;;;;;;;;;;24.74;21.53;98692.34;4980855;28;19968;-78
2022/05/26 10:51:11;;;;;;;;;;;;;;;24.57;21.55;98688.31;4989659;28;19932;-77
2022/05/26 10:53:41;;;;;;;;;;;;;;;24.36;21.72;98675.94;4988208;28;19926;-78
2022/05/26 10:56:12;;;;;;;;;;;;;;;24.03;22.07;98660.28;4987640;28;19953;-78
2022/05/26 10:58:42;;;;;;;;;;;;;;;23.89;22.41;98667.41;4646575;28;9999925;-78
2022/05/26 11:01:11;;;;;;;;;;;;;;;23.83;22.29;98657.78;4987409;28;19925;-78
2022/05/26 11:03:42;;;;;;;;;;;;;;;23.33;22.65;98661.94;4986229;28;19926;-72
2022/05/26 11:06:10;;;;;;;;;;;;;;;23.05;23.20;98666.09;4995584;28;19926;-72
2022/05/26 11:08:38;;;;;;;;;;;;;;;23.02;23.19;98664.09;4995797;28;19926;-72
2022/05/26 11:11:06;;;;;;;;;;;;;;;23.10;22.83;98667.72;4998318;28;19930;-72
2022/05/26 11:13:40;;;;;;;;;;;;;;;23.28;23.16;98656.75;4984287;28;19926;-72
2022/05/26 11:18:59;;;;;;;;;;;;;;;23.46;23.05;98639.31;4981410;28;19925;-72
2022/05/26 11:21:24;;;;;;;;;;;;;;;23.83;22.74;98629.88;4982669;28;19925;-72
2022/05/26 11:23:50;;;;;;;;;;;;;;;24.13;22.43;98626.03;4981482;28;20483;-73
2022/05/26 11:26:27;;;;;;;;;;;;;;;24.40;22.08;98641.63;4982875;28;19948;-72
2022/05/26 11:28:55;;;;;;;;;;;;;;;23.94;22.47;98635.50;4983812;28;19929;-72
2022/05/26 11:37:00;;;;;;;;;;;;;;;22.47;24.07;98637.75;4986982;28;19926;-72
2022/05/26 11:39:29;;;;;;;;;;;;;;;22.07;24.83;98628.22;4985781;28;20032;-72
2022/05/26 11:41:57;;;;;;;;;;;;;;;21.60;25.47;98616.50;4979647;28;20586;-72
2022/05/26 11:44:31;;;;;;;;;;;;;;;21.19;25.88;98622.72;4991557;28;19925;-71
2022/05/26 11:47:11;;;;;;;;;;;;;;;20.94;26.14;98615.63;4983051;28;20376;-77
2022/05/26 11:49:56;;;;;;;;;;;;;;;20.85;26.69;98612.34;4985547;28;20033;-72
2022/05/26 11:52:25;;;;;;;;;;;;;;;20.79;26.46;98613.78;4987148;28;19921;-72
2022/05/26 11:55:09;;;;;;;;;;;;;;;20.72;26.71;98606.13;4983582;28;19932;-72
2022/05/26 11:57:40;;;;;;;;;;;;;;;20.87;26.63;98601.66;4981682;28;20003;-71
2022/05/26 12:00:19;;;;;;;;;;;;;;;21.03;26.28;98604.25;4983244;28;19972;-72
2022/05/26 12:02:46;;;;;;;;;;;;;;;20.95;25.95;98597.78;4966744;28;19952;-72
2022/05/26 12:05:30;;;;;;;;;;;;;;;20.90;26.12;98589.78;4981124;28;19925;-72
2022/05/26 12:07:59;;;;;;;;;;;;;;;20.75;26.58;98594.28;4973567;28;20302;-72
2022/05/26 12:10:27;;;;;;;;;;;;;;;20.83;26.42;98582.13;4978411;28;20520;-72
2022/05/26 12:13:07;;;;;;;;;;;;;;;21.03;26.47;98582.03;4977965;28;19925;-72
2022/05/26 12:15:33;;;;;;;;;;;;;;;21.30;25.68;98579.22;4985849;28;19925;-72
2022/05/26 12:17:59;;;;;;;;;;;;;;;21.46;25.74;98570.66;4988029;28;19933;-72
2022/05/26 12:20:42;;;;;;;;;;;;;;;21.70;25.58;98573.34;4984535;28;20039;-72
2022/05/26 12:23:24;;;;;;;;;;;;;;;22.02;25.19;98562.56;4984359;28;19961;-72
2022/05/26 12:26:04;;;;;;;;;;;;;;;22.15;25.15;98557.50;4984467;28;20053;-77
2022/05/26 12:28:31;;;;;;;;;;;;;;;22.10;25.35;98552.31;4977944;28;20423;-77
2022/05/26 12:31:07;;;;;;;;;;;;;;;21.96;25.58;98550.97;4984667;28;19929;-76
2022/05/26 12:34:02;;;;;;;;;;;;;;;21.96;25.43;98539.06;4984839;28;20408;-76
2022/05/26 12:36:34;;;;;;;;;;;;;;;22.01;25.73;98535.94;4978987;28;20381;-77
2022/05/26 12:39:14;;;;;;;;;;;;;;;21.94;25.52;98531.09;4984277;28;19981;-76
2022/05/26 12:41:46;;;;;;;;;;;;;;;21.77;25.86;98526.16;4982460;28;20400;-76
2022/05/26 12:44:28;;;;;;;;;;;;;;;21.41;26.43;98509.84;4980380;28;20447;-71
2022/05/26 12:47:01;;;;;;;;;;;;;;;21.40;26.95;98511.03;4984873;28;20199;-71
2022/05/26 12:49:51;;;;;;;;;;;;;;;21.07;26.86;98513.44;4966530;28;20321;-77
2022/05/26 12:52:19;;;;;;;;;;;;;;;20.88;27.21;98496.88;4985052;28;19926;-71
2022/05/26 12:54:49;;;;;;;;;;;;;;;20.62;27.96;98495.72;4983102;28;20486;-72
2022/05/26 12:57:19;;;;;;;;;;;;;;;20.46;28.12;98482.81;5000111;28;19926;-71
2022/05/26 12:59:44;;;;;;;;;;;;;;;20.29;28.05;98480.53;4998762;28;19933;-70
2022/05/26 13:02:12;;;;;;;;;;;;;;;20.06;28.53;98470.28;4983520;28;19929;-71
2022/05/26 13:04:38;;;;;;;;;;;;;;;19.91;29.09;98472.00;4983077;28;20457;-71
2022/05/26 13:07:05;;;;;;;;;;;;;;;19.77;29.08;98465.03;4996988;28;19925;-71
2022/05/26 13:09:35;;;;;;;;;;;;;;;19.67;29.57;98458.13;4982650;28;19925;-71
2022/05/26 13:12:04;;;;;;;;;;;;;;;19.57;29.91;98472.59;4984170;28;19925;-77
2022/05/26 13:14:33;;;;;;;;;;;;;;;19.54;29.92;98453.94;4967772;28;20024;-77
2022/05/26 13:17:00;;;;;;;;;;;;;;;19.47;30.01;98451.81;4984838;28;19969;-77
2022/05/26 13:19:26;;;;;;;;;;;;;;;19.40;30.08;98454.44;4983507;28;19926;-77
2022/05/26 13:21:53;;;;;;;;;;;;;;;19.30;30.40;98444.75;4984642;28;19926;-77
2022/05/26 13:24:20;;;;;;;;;;;;;;;19.17;30.80;98449.66;4980378;28;19925;-72
2022/05/26 13:26:46;;;;;;;;;;;;;;;19.07;30.69;98441.94;4979031;28;19926;-72
2022/05/26 13:29:16;;;;;;;;;;;;;;;18.97;30.92;98438.56;4980445;28;19936;-71
2022/05/26 13:34:27;;;;;;;;;;;;;;;18.94;31.27;98444.81;4979914;28;19926;-78